Time;durP1;ratioP1;P1;durP2;ratioP2;P2;SDS_P1;SDS_P2;PMS_P1;PMS_P2;Temp;Humidity;BMP_temperature;BMP_pressure;BME280_temperature;BME280_humidity;BME280_pressure;Samples;Min_cycle;Max_cycle;Signal;HPM_P1;HPM_P2
2023/01/03 00:01:39;;;;;;;107.40;39.55;;;;;;;;;;4973328;28;20166;-77
2023/01/03 00:04:06;;;;;;;105.07;41.42;;;;;;;;;;4963090;28;20045;-77
2023/01/03 00:06:41;;;;;;;97.63;39.38;;;;;;;;;;4988695;28;20050;-77
2023/01/03 00:09:09;;;;;;;97.57;39.35;;;;;;;;;;4974336;28;20480;-77
2023/01/03 00:14:29;;;;;;;95.68;36.22;;;;;;;;;;4993533;28;20558;-78
2023/01/03 00:16:57;;;;;;;89.82;37.67;;;;;;;;;;4975783;28;20035;-76
2023/01/03 00:19:25;;;;;;;94.82;37.88;;;;;;;;;;4959488;28;20574;-77
2023/01/03 00:21:51;;;;;;;87.78;36.30;;;;;;;;;;4990757;28;20034;-77
2023/01/03 00:24:17;;;;;;;74.85;33.85;;;;;;;;;;4992301;28;20443;-76
2023/01/03 00:26:43;;;;;;;75.47;35.03;;;;;;;;;;4975810;28;20034;-78
2023/01/03 00:29:08;;;;;;;81.07;34.90;;;;;;;;;;4982837;28;20117;-77
2023/01/03 00:31:35;;;;;;;85.05;33.08;;;;;;;;;;4980522;28;20038;-76
2023/01/03 00:34:01;;;;;;;73.30;30.23;;;;;;;;;;4981521;28;20028;-78
2023/01/03 00:36:27;;;;;;;80.82;32.25;;;;;;;;;;4971556;28;20085;-78
2023/01/03 00:38:53;;;;;;;78.80;30.95;;;;;;;;;;4958305;28;20034;-77
2023/01/03 00:41:19;;;;;;;89.28;31.02;;;;;;;;;;4992097;28;20069;-76
2023/01/03 00:43:47;;;;;;;87.00;30.77;;;;;;;;;;4992779;28;20103;-77
2023/01/03 00:46:15;;;;;;;95.30;31.55;;;;;;;;;;4991460;28;20041;-78
2023/01/03 00:48:41;;;;;;;57.15;28.85;;;;;;;;;;4992273;28;20022;-77
2023/01/03 00:51:17;;;;;;;98.45;28.20;;;;;;;;;;4991698;28;20038;-78
2023/01/03 00:53:45;;;;;;;66.47;27.42;;;;;;;;;;4992880;28;20042;-77
2023/01/03 00:56:18;;;;;;;46.60;26.00;;;;;;;;;;4992428;28;20042;-78
2023/01/03 00:58:45;;;;;;;;;;;;;;;;;;4992938;28;20038;-77
2023/01/03 01:01:36;;;;;;;141.13;30.20;;;;;;;;;;4992594;28;19960;-77
2023/01/03 01:04:07;;;;;;;49.13;25.08;;;;;;;;;;4980123;28;20461;-78
2023/01/03 01:06:38;;;;;;;43.72;23.30;;;;;;;;;;4987320;28;20029;-76
2023/01/03 01:09:06;;;;;;;36.60;20.80;;;;;;;;;;4989067;28;20080;-77
2023/01/03 01:11:33;;;;;;;50.03;23.15;;;;;;;;;;4988265;28;20050;-78
2023/01/03 01:13:59;;;;;;;36.08;20.15;;;;;;;;;;4989177;28;20036;-77
2023/01/03 01:16:31;;;;;;;51.45;20.08;;;;;;;;;;4991794;28;20034;-78
2023/01/03 01:19:00;;;;;;;33.83;18.30;;;;;;;;;;4981437;28;20034;-77
2023/01/03 01:21:28;;;;;;;40.90;18.35;;;;;;;;;;4996350;28;20023;-77
2023/01/03 01:23:54;;;;;;;60.20;21.63;;;;;;;;;;4992080;28;20034;-77
2023/01/03 01:26:22;;;;;;;44.88;22.25;;;;;;;;;;4991917;28;20337;-76
2023/01/03 01:28:50;;;;;;;37.03;18.90;;;;;;;;;;4992104;28;20034;-78
2023/01/03 01:31:18;;;;;;;33.25;20.00;;;;;;;;;;4993362;28;20023;-76
2023/01/03 01:33:45;;;;;;;38.70;18.67;;;;;;;;;;4996240;28;20392;-77
2023/01/03 01:36:19;;;;;;;36.08;19.00;;;;;;;;;;4996283;28;20022;-76
2023/01/03 01:38:46;;;;;;;41.45;20.08;;;;;;;;;;4996183;28;20110;-78
2023/01/03 01:46:45;;;;;;;66.95;20.00;;;;;;;;;;4993441;28;20058;-77
2023/01/03 01:49:17;;;;;;;43.92;20.67;;;;;;;;;;4973736;28;20026;-77
2023/01/03 01:51:43;;;;;;;41.88;19.80;;;;;;;;;;4995422;28;20080;-78
2023/01/03 01:54:09;;;;;;;43.30;19.52;;;;;;;;;;4978466;28;20486;-77
2023/01/03 01:56:39;;;;;;;38.05;21.48;;;;;;;;;;4995937;28;20038;-77
2023/01/03 01:59:08;;;;;;;50.30;20.58;;;;;;;;;;4995239;28;20125;-76
2023/01/03 02:01:34;;;;;;;37.97;18.67;;;;;;;;;;4993429;28;20026;-77
2023/01/03 02:04:08;;;;;;;77.28;22.25;;;;;;;;;;4987434;28;20058;-76
2023/01/03 02:06:34;;;;;;;117.47;22.73;;;;;;;;;;4978779;28;20030;-77
2023/01/03 02:09:00;;;;;;;47.53;19.52;;;;;;;;;;4977720;28;20029;-78
2023/01/03 02:11:26;;;;;;;41.63;21.33;;;;;;;;;;4995242;28;20055;-78
2023/01/03 02:14:20;;;;;;;60.63;19.40;;;;;;;;;;4977521;28;20042;-78
2023/01/03 02:17:00;;;;;;;44.58;18.38;;;;;;;;;;4994312;28;20041;-78
2023/01/03 02:20:04;;;;;;;35.50;17.75;;;;;;;;;;4995238;28;20049;-76
2023/01/03 02:22:39;;;;;;;35.05;19.48;;;;;;;;;;4977727;28;20050;-78
2023/01/03 02:26:04;;;;;;;38.88;19.27;;;;;;;;;;4978228;28;20034;-77
2023/01/03 02:28:48;;;;;;;47.20;19.67;;;;;;;;;;4915624;29;20080;-76
2023/01/03 02:31:37;;;;;;;34.85;19.17;;;;;;;;;;4919141;29;20027;-77
2023/01/03 02:34:33;;;;;;;35.08;19.15;;;;;;;;;;4972460;28;20038;-77
2023/01/03 02:37:32;;;;;;;47.08;19.25;;;;;;;;;;4994048;28;20109;-77
2023/01/03 02:40:07;;;;;;;37.00;18.02;;;;;;;;;;4994224;28;20030;-77
2023/01/03 02:42:57;;;;;;;37.92;17.25;;;;;;;;;;4994143;28;20041;-77
2023/01/03 02:45:38;;;;;;;37.00;18.38;;;;;;;;;;4994552;28;20039;-76
2023/01/03 02:48:35;;;;;;;58.20;18.40;;;;;;;;;;4990927;28;20038;-76
2023/01/03 02:51:06;;;;;;;35.88;16.98;;;;;;;;;;4963111;28;20504;-77
2023/01/03 02:53:39;;;;;;;34.35;17.10;;;;;;;;;;4992274;28;20606;-78
2023/01/03 02:56:10;;;;;;;36.90;17.80;;;;;;;;;;4994083;28;20069;-77
2023/01/03 02:58:38;;;;;;;75.07;19.00;;;;;;;;;;4993401;28;20088;-76
2023/01/03 03:01:06;;;;;;;103.68;19.85;;;;;;;;;;4993778;28;20026;-77
2023/01/03 03:03:36;;;;;;;38.08;18.65;;;;;;;;;;4993310;28;20048;-77
2023/01/03 03:06:12;;;;;;;49.33;20.77;;;;;;;;;;4992811;28;20025;-79
2023/01/03 03:08:38;;;;;;;33.80;18.30;;;;;;;;;;4994495;28;20591;-78
2023/01/03 03:13:54;;;;;;;38.05;18.60;;;;;;;;;;4977013;28;20496;-75
2023/01/03 03:16:48;;;;;;;44.05;18.27;;;;;;;;;;4994408;28;20037;-77
2023/01/03 03:25:42;;;;;;;73.72;18.73;;;;;;;;;;4994026;28;20514;-78
2023/01/03 03:31:01;;;;;;;32.10;18.20;;;;;;;;;;4993183;28;20066;-76
2023/01/03 03:33:29;;;;;;;38.05;20.23;;;;;;;;;;4994081;28;20097;-79
2023/01/03 03:36:04;;;;;;;52.20;18.40;;;;;;;;;;4975363;28;20026;-78
2023/01/03 03:38:37;;;;;;;62.53;19.73;;;;;;;;;;4972446;28;20434;-79
2023/01/03 03:47:33;;;;;;;33.60;16.95;;;;;;;;;;4989926;28;20130;-77
2023/01/03 03:50:12;;;;;;;33.80;17.65;;;;;;;;;;4961633;28;20047;-76
2023/01/03 03:52:43;;;;;;;46.72;17.33;;;;;;;;;;4987207;28;20034;-77
2023/01/03 03:55:24;;;;;;;34.20;17.00;;;;;;;;;;4992581;28;20253;-78
2023/01/03 03:57:56;;;;;;;35.15;16.67;;;;;;;;;;4988478;28;20035;-78
2023/01/03 04:00:28;;;;;;;28.55;16.63;;;;;;;;;;4991733;28;20034;-78
2023/01/03 04:02:56;;;;;;;50.10;17.15;;;;;;;;;;4992016;28;20049;-77
2023/01/03 04:05:24;;;;;;;45.47;18.15;;;;;;;;;;4974457;28;20022;-76
2023/01/03 04:07:50;;;;;;;30.38;16.00;;;;;;;;;;4993250;28;20030;-76
2023/01/03 04:10:22;;;;;;;52.47;17.63;;;;;;;;;;4975484;28;20034;-77
2023/01/03 04:12:50;;;;;;;43.67;18.20;;;;;;;;;;4993248;28;20058;-78
2023/01/03 04:15:16;;;;;;;62.38;16.63;;;;;;;;;;4992878;28;20030;-78
2023/01/03 04:17:43;;;;;;;59.53;17.77;;;;;;;;;;5005006;28;20087;-77
2023/01/03 04:20:10;;;;;;;33.80;16.27;;;;;;;;;;5011688;28;20041;-77
2023/01/03 04:22:36;;;;;;;35.80;19.30;;;;;;;;;;4996068;28;20473;-77
2023/01/03 04:25:02;;;;;;;30.92;16.92;;;;;;;;;;4993149;28;20052;-78
2023/01/03 04:27:28;;;;;;;30.73;18.85;;;;;;;;;;4992431;28;20038;-77
2023/01/03 04:29:55;;;;;;;49.70;17.88;;;;;;;;;;4992664;28;20030;-76
2023/01/03 04:32:22;;;;;;;46.38;17.52;;;;;;;;;;4992505;28;20038;-76
2023/01/03 04:34:47;;;;;;;34.05;18.42;;;;;;;;;;4992663;28;20044;-78
2023/01/03 04:37:13;;;;;;;46.03;16.70;;;;;;;;;;4992780;28;20086;-77
2023/01/03 04:39:40;;;;;;;56.15;18.27;;;;;;;;;;4979351;28;20038;-78
2023/01/03 04:44:00;;;;;;;42.75;16.92;;;;;;;;;;4980145;28;20034;-76
2023/01/03 04:44:51;;;;;;;46.28;16.35;;;;;;;;;;4981065;28;20112;-76
2023/01/03 04:47:18;;;;;;;45.40;18.08;;;;;;;;;;4993280;28;20046;-77
2023/01/03 04:49:46;;;;;;;34.15;16.45;;;;;;;;;;4975452;28;20045;-78
2023/01/03 04:52:15;;;;;;;35.03;16.48;;;;;;;;;;4979979;28;20046;-78
2023/01/03 04:54:43;;;;;;;32.13;16.17;;;;;;;;;;5010461;28;20090;-77
2023/01/03 04:57:09;;;;;;;32.28;17.20;;;;;;;;;;4994776;28;20027;-76
2023/01/03 04:59:36;;;;;;;50.60;18.02;;;;;;;;;;4975723;28;20108;-76
2023/01/03 05:02:02;;;;;;;34.50;17.98;;;;;;;;;;4991694;28;20113;-75
2023/01/03 05:04:30;;;;;;;31.42;17.00;;;;;;;;;;4992123;28;20446;-77
2023/01/03 05:06:56;;;;;;;112.03;19.25;;;;;;;;;;4994064;28;20256;-77
2023/01/03 05:09:22;;;;;;;34.65;16.98;;;;;;;;;;4995324;28;20038;-78
2023/01/03 05:11:48;;;;;;;33.55;17.23;;;;;;;;;;4958259;28;20050;-79
2023/01/03 05:14:14;;;;;;;37.17;15.70;;;;;;;;;;4974782;28;20031;-79
2023/01/03 05:16:40;;;;;;;37.50;15.65;;;;;;;;;;4972178;28;20382;-76
2023/01/03 05:19:06;;;;;;;42.13;16.98;;;;;;;;;;5009055;28;20111;-77
2023/01/03 05:27:03;;;;;;;46.42;17.08;;;;;;;;;;4995704;28;20370;-77
2023/01/03 05:29:30;;;;;;;35.00;15.77;;;;;;;;;;4978079;28;20026;-76
2023/01/03 05:31:56;;;;;;;26.75;15.93;;;;;;;;;;4977554;28;20061;-77
2023/01/03 05:34:22;;;;;;;32.45;16.63;;;;;;;;;;4995112;28;20147;-76
2023/01/03 05:36:49;;;;;;;28.75;17.05;;;;;;;;;;4994676;28;20564;-78
2023/01/03 05:39:14;;;;;;;41.97;17.52;;;;;;;;;;4977260;28;20022;-78
2023/01/03 05:41:58;;;;;;;41.63;19.25;;;;;;;;;;4993922;28;20065;-77
2023/01/03 05:44:25;;;;;;;;;;;;;;;;;;4979871;28;20569;-76
2023/01/03 05:46:51;;;;;;;44.45;18.13;;;;;;;;;;4989424;28;19914;-78
2023/01/03 05:49:19;;;;;;;37.85;17.48;;;;;;;;;;5000234;28;20520;-78
2023/01/03 05:51:44;;;;;;;63.67;18.98;;;;;;;;;;4998121;28;20046;-78
2023/01/03 05:54:15;;;;;;;50.22;18.77;;;;;;;;;;5005909;28;20036;-78
2023/01/03 05:56:41;;;;;;;30.88;17.00;;;;;;;;;;4958124;28;20051;-76
2023/01/03 05:59:07;;;;;;;46.50;16.73;;;;;;;;;;4958479;28;20023;-78
2023/01/03 06:01:35;;;;;;;96.70;18.63;;;;;;;;;;4988053;28;20030;-77
2023/01/03 06:04:01;;;;;;;112.50;20.05;;;;;;;;;;4992921;28;20041;-78
2023/01/03 06:06:27;;;;;;;45.30;18.90;;;;;;;;;;4999784;28;20054;-78
2023/01/03 06:08:54;;;;;;;38.38;19.48;;;;;;;;;;4998130;28;20022;-78
2023/01/03 06:11:21;;;;;;;40.42;20.02;;;;;;;;;;4985829;28;20054;-76
2023/01/03 06:13:48;;;;;;;46.97;20.45;;;;;;;;;;5002290;28;20029;-78
2023/01/03 06:19:02;;;;;;;33.30;20.75;;;;;;;;;;5000984;28;20050;-78
2023/01/03 06:21:28;;;;;;;70.35;22.33;;;;;;;;;;5010743;28;20026;-78
2023/01/03 06:23:54;;;;;;;45.40;21.60;;;;;;;;;;4997318;28;20085;-78
2023/01/03 06:26:22;;;;;;;42.80;24.65;;;;;;;;;;5001856;28;20325;-78
2023/01/03 06:28:49;;;;;;;53.35;25.15;;;;;;;;;;4985175;28;20046;-78
2023/01/03 06:31:15;;;;;;;47.90;25.00;;;;;;;;;;4998106;28;20061;-78
2023/01/03 06:33:41;;;;;;;61.60;27.05;;;;;;;;;;5001479;28;20053;-77
2023/01/03 06:36:11;;;;;;;52.20;26.58;;;;;;;;;;4999338;28;20484;-76
2023/01/03 06:38:37;;;;;;;53.30;27.13;;;;;;;;;;4984066;28;20040;-78
2023/01/03 06:41:05;;;;;;;66.45;27.52;;;;;;;;;;4997517;28;20092;-78
2023/01/03 06:43:31;;;;;;;49.45;27.23;;;;;;;;;;4997685;28;20031;-77
2023/01/03 06:54:20;;;;;;;55.70;27.63;;;;;;;;;;5003645;28;20037;-75
2023/01/03 06:56:46;;;;;;;64.47;28.58;;;;;;;;;;4997057;28;20080;-76
2023/01/03 06:59:11;;;;;;;111.50;33.40;;;;;;;;;;5000582;28;20038;-76
2023/01/03 07:01:38;;;;;;;54.55;28.98;;;;;;;;;;4982055;28;20156;-77
2023/01/03 07:04:05;;;;;;;51.13;29.30;;;;;;;;;;5003035;28;20065;-77
2023/01/03 07:06:31;;;;;;;66.30;30.40;;;;;;;;;;4999632;28;20034;-76
2023/01/03 07:08:57;;;;;;;75.57;31.45;;;;;;;;;;4984460;28;20478;-76
2023/01/03 07:11:23;;;;;;;118.90;32.90;;;;;;;;;;4989866;28;20053;-77
2023/01/03 07:13:59;;;;;;;63.90;30.15;;;;;;;;;;4995105;28;20614;-76
2023/01/03 07:16:39;;;;;;;115.38;31.75;;;;;;;;;;5012259;28;20081;-76
2023/01/03 07:19:07;;;;;;;60.28;28.20;;;;;;;;;;5012817;28;20092;-77
2023/01/03 07:21:35;;;;;;;61.67;30.73;;;;;;;;;;5007597;28;20055;-76
2023/01/03 07:24:04;;;;;;;63.67;32.78;;;;;;;;;;4992561;28;20080;-76
2023/01/03 07:26:32;;;;;;;62.47;31.50;;;;;;;;;;4986359;28;20337;-76
2023/01/03 07:29:01;;;;;;;58.42;30.83;;;;;;;;;;5003900;28;20037;-75
2023/01/03 07:31:27;;;;;;;77.10;31.27;;;;;;;;;;4987665;28;20030;-76
2023/01/03 07:33:53;;;;;;;62.60;30.55;;;;;;;;;;4997580;28;20050;-77
2023/01/03 07:36:20;;;;;;;96.85;33.63;;;;;;;;;;4991599;28;20030;-75
2023/01/03 07:38:46;;;;;;;74.00;34.17;;;;;;;;;;4975406;28;20106;-76
2023/01/03 07:41:13;;;;;;;65.57;31.10;;;;;;;;;;4973074;28;20435;-78
2023/01/03 07:43:42;;;;;;;63.22;32.53;;;;;;;;;;4989824;28;20035;-77
2023/01/03 07:46:24;;;;;;;176.65;39.47;;;;;;;;;;4998229;28;20030;-76
2023/01/03 07:48:51;;;;;;;77.40;35.00;;;;;;;;;;4990859;28;20070;-77
2023/01/03 07:51:19;;;;;;;117.18;40.25;;;;;;;;;;4992132;28;20101;-77
2023/01/03 07:53:49;;;;;;;85.72;37.70;;;;;;;;;;4991587;28;20042;-78
2023/01/03 07:56:18;;;;;;;107.57;37.72;;;;;;;;;;4970966;28;20051;-77
2023/01/03 07:58:46;;;;;;;171.70;40.35;;;;;;;;;;4984245;28;20056;-75
2023/01/03 08:01:14;;;;;;;78.18;38.20;;;;;;;;;;4991600;28;20573;-77
2023/01/03 08:03:40;;;;;;;89.63;38.05;;;;;;;;;;4992009;28;20353;-76
2023/01/03 08:06:08;;;;;;;78.32;39.88;;;;;;;;;;4974429;28;20061;-75
2023/01/03 08:08:34;;;;;;;92.22;40.72;;;;;;;;;;4991888;28;20026;-76
2023/01/03 08:13:47;;;;;;;98.50;42.20;;;;;;;;;;4991801;28;20385;-76
2023/01/03 08:16:15;;;;;;;110.22;42.47;;;;;;;;;;4992004;28;20452;-77
2023/01/03 08:18:42;;;;;;;89.70;41.17;;;;;;;;;;4992097;28;20053;-76
2023/01/03 08:21:10;;;;;;;103.28;44.03;;;;;;;;;;4973277;28;20381;-77
2023/01/03 08:23:37;;;;;;;106.07;44.10;;;;;;;;;;4989693;28;20057;-78
2023/01/03 08:26:05;;;;;;;161.73;45.92;;;;;;;;;;4970213;28;20113;-76
2023/01/03 08:28:32;;;;;;;104.15;47.40;;;;;;;;;;4979222;28;20041;-77
2023/01/03 08:31:01;;;;;;;113.05;42.15;;;;;;;;;;4988171;28;20038;-76
2023/01/03 08:33:32;;;;;;;111.97;43.30;;;;;;;;;;4978773;28;20046;-76
2023/01/03 08:36:04;;;;;;;89.50;40.42;;;;;;;;;;4975971;28;20504;-77
2023/01/03 08:38:36;;;;;;;73.70;37.20;;;;;;;;;;4955152;28;20039;-76
2023/01/03 08:41:06;;;;;;;80.43;39.08;;;;;;;;;;4973390;28;20045;-75
2023/01/03 08:43:34;;;;;;;86.25;39.45;;;;;;;;;;4991592;28;20038;-76
2023/01/03 08:46:03;;;;;;;84.80;37.65;;;;;;;;;;4973548;28;20034;-75
2023/01/03 08:48:29;;;;;;;91.68;39.65;;;;;;;;;;4990833;28;20129;-78
2023/01/03 08:50:54;;;;;;;95.35;39.33;;;;;;;;;;4992292;28;20054;-76
2023/01/03 08:53:21;;;;;;;91.78;40.67;;;;;;;;;;4973805;28;20628;-76
2023/01/03 08:55:47;;;;;;;123.72;41.50;;;;;;;;;;4991219;28;20045;-75
2023/01/03 08:58:13;;;;;;;100.28;40.58;;;;;;;;;;4991286;28;20039;-77
2023/01/03 09:00:39;;;;;;;107.05;46.10;;;;;;;;;;4991374;28;20046;-77
2023/01/03 09:03:06;;;;;;;121.57;43.17;;;;;;;;;;4973025;28;20038;-76
2023/01/03 09:05:32;;;;;;;116.93;42.67;;;;;;;;;;4964536;28;20027;-78
2023/01/03 09:07:58;;;;;;;138.05;50.50;;;;;;;;;;4954388;28;20039;-77
2023/01/03 09:10:24;;;;;;;157.75;53.33;;;;;;;;;;4983231;28;20062;-78
2023/01/03 09:12:53;;;;;;;168.73;49.78;;;;;;;;;;4991148;28;20061;-77
2023/01/03 09:15:20;;;;;;;144.77;54.95;;;;;;;;;;4990167;28;20140;-78
2023/01/03 09:17:48;;;;;;;144.32;53.50;;;;;;;;;;4989918;28;20405;-79
2023/01/03 09:20:16;;;;;;;151.98;55.15;;;;;;;;;;4991002;28;20114;-77
2023/01/03 09:22:42;;;;;;;140.88;52.17;;;;;;;;;;4991379;28;20031;-76
2023/01/03 09:25:09;;;;;;;129.18;47.08;;;;;;;;;;4973443;28;20374;-79
2023/01/03 09:27:35;;;;;;;127.05;49.13;;;;;;;;;;4953996;28;20061;-78
2023/01/03 09:30:02;;;;;;;150.15;49.30;;;;;;;;;;4953707;28;20397;-77
2023/01/03 09:32:28;;;;;;;119.47;48.05;;;;;;;;;;4960085;28;20034;-79
2023/01/03 09:34:54;;;;;;;97.57;44.80;;;;;;;;;;4972967;28;20381;-78
2023/01/03 09:37:20;;;;;;;116.60;46.55;;;;;;;;;;4990322;28;20085;-79
2023/01/03 09:39:45;;;;;;;116.82;45.75;;;;;;;;;;4988869;28;20468;-78
2023/01/03 09:45:10;;;;;;;103.95;47.20;;;;;;;;;;4990761;28;20054;-78
2023/01/03 09:47:38;;;;;;;121.43;49.10;;;;;;;;;;4989656;28;20043;-77
2023/01/03 09:50:09;;;;;;;116.88;48.58;;;;;;;;;;4973037;28;20030;-77
2023/01/03 10:04:27;;;;;;;123.70;45.80;;;;;;;;;;4994071;28;20206;-78
2023/01/03 10:07:09;;;;;;;108.15;45.50;;;;;;;;;;4992045;28;20061;-77
2023/01/03 10:10:08;;;;;;;121.18;48.90;;;;;;;;;;4976038;28;20035;-78
2023/01/03 10:12:59;;;;;;;124.30;49.58;;;;;;;;;;4976522;28;20047;-78
2023/01/03 10:16:04;;;;;;;124.30;48.78;;;;;;;;;;4993785;28;20034;-79
2023/01/03 10:18:36;;;;;;;134.68;54.03;;;;;;;;;;4942536;28;20054;-79
2023/01/03 10:21:26;;;;;;;119.18;50.55;;;;;;;;;;4982110;28;20129;-79
2023/01/03 10:23:53;;;;;;;138.27;52.17;;;;;;;;;;4994498;28;20088;-78
2023/01/03 10:26:24;;;;;;;124.18;54.42;;;;;;;;;;4983786;28;20026;-78
2023/01/03 10:28:50;;;;;;;126.75;52.28;;;;;;;;;;4993935;28;20042;-79
2023/01/03 10:31:40;;;;;;;125.40;55.03;;;;;;;;;;4992984;28;20068;-78
2023/01/03 10:34:06;;;;;;;130.32;55.13;;;;;;;;;;4993660;28;20034;-77
2023/01/03 10:36:32;;;;;;;130.90;57.42;;;;;;;;;;4960188;28;20027;-77
2023/01/03 10:39:07;;;;;;;135.00;56.40;;;;;;;;;;4993370;28;20038;-79
2023/01/03 10:41:47;;;;;;;141.05;59.90;;;;;;;;;;4975510;28;20053;-77
2023/01/03 10:44:54;;;;;;;132.18;59.20;;;;;;;;;;4998245;28;20038;-78
2023/01/03 10:47:20;;;;;;;90.43;41.53;;;;;;;;;;4977506;28;20042;-77
2023/01/03 10:49:47;;;;;;;106.88;46.03;;;;;;;;;;4975288;28;20030;-78
2023/01/03 10:52:18;;;;;;;119.68;50.63;;;;;;;;;;4993167;28;20116;-78
2023/01/03 10:54:52;;;;;;;107.70;46.42;;;;;;;;;;4993383;28;20039;-78
2023/01/03 10:57:45;;;;;;;102.70;44.95;;;;;;;;;;4975348;28;20089;-79
2023/01/03 11:00:25;;;;;;;118.85;50.83;;;;;;;;;;4993325;28;20038;-75
2023/01/03 11:02:55;;;;;;;118.15;48.38;;;;;;;;;;4996430;28;20035;-78
2023/01/03 11:05:26;;;;;;;105.30;45.70;;;;;;;;;;4974612;28;20030;-79
2023/01/03 11:07:59;;;;;;;96.90;43.88;;;;;;;;;;4990946;28;20125;-78
2023/01/03 11:10:38;;;;;;;93.68;43.67;;;;;;;;;;4992858;28;20556;-79
2023/01/03 11:13:23;;;;;;;96.50;43.85;;;;;;;;;;4993164;28;20471;-77
2023/01/03 11:15:56;;;;;;;84.10;40.95;;;;;;;;;;4974977;28;20038;-79
2023/01/03 11:18:24;;;;;;;;;;;;;;;;;;5000601;28;20071;-82
2023/01/03 11:21:06;;;;;;;75.07;36.40;;;;;;;;;;4989263;28;19914;-78
2023/01/03 11:23:56;;;;;;;80.00;37.67;;;;;;;;;;4995783;28;20101;-78
2023/01/03 11:26:32;;;;;;;80.07;38.00;;;;;;;;;;4984178;28;20502;-78
2023/01/03 11:29:23;;;;;;;79.97;37.03;;;;;;;;;;4995685;28;20080;-79
2023/01/03 11:32:23;;;;;;;80.22;41.38;;;;;;;;;;5001820;28;20064;-79
2023/01/03 11:35:17;;;;;;;92.75;41.70;;;;;;;;;;4987486;28;20042;-79
2023/01/03 11:37:57;;;;;;;78.32;38.28;;;;;;;;;;4993272;28;20074;-82
2023/01/03 11:40:46;;;;;;;87.47;42.10;;;;;;;;;;4971807;28;20040;-80
2023/01/03 11:43:35;;;;;;;88.80;42.75;;;;;;;;;;4986159;28;20041;-78
2023/01/03 11:46:15;;;;;;;86.50;42.45;;;;;;;;;;4989076;28;20804;-77
2023/01/03 11:48:57;;;;;;;96.00;42.63;;;;;;;;;;4984295;28;20072;-77
2023/01/03 11:52:05;;;;;;;89.82;42.97;;;;;;;;;;4999068;28;20110;-79
2023/01/03 11:54:51;;;;;;;93.15;42.85;;;;;;;;;;4980911;28;20030;-79
2023/01/03 11:57:52;;;;;;;97.43;46.47;;;;;;;;;;4991527;28;20038;-77
2023/01/03 12:00:27;;;;;;;124.38;58.70;;;;;;;;;;4985283;28;20149;-77
2023/01/03 12:02:59;;;;;;;110.22;51.90;;;;;;;;;;4991565;28;20109;-79
2023/01/03 12:05:54;;;;;;;93.38;46.15;;;;;;;;;;4974820;28;20099;-77
2023/01/03 12:08:42;;;;;;;100.35;46.78;;;;;;;;;;4935921;28;20138;-76
2023/01/03 12:11:29;;;;;;;116.18;50.88;;;;;;;;;;4988663;28;20038;-78
2023/01/03 12:14:15;;;;;;;106.60;49.35;;;;;;;;;;4973789;28;20026;-79
2023/01/03 12:16:59;;;;;;;109.97;49.97;;;;;;;;;;4993201;28;20034;-77
2023/01/03 12:19:29;;;;;;;98.38;46.45;;;;;;;;;;4990846;28;20038;-78
2023/01/03 12:22:01;;;;;;;105.18;47.97;;;;;;;;;;4977487;28;20058;-78
2023/01/03 12:25:12;;;;;;;90.78;44.40;;;;;;;;;;4976988;28;20054;-78
2023/01/03 12:28:02;;;;;;;104.68;47.30;;;;;;;;;;4971651;28;20054;-78
2023/01/03 12:30:40;;;;;;;90.03;43.28;;;;;;;;;;4991565;28;20042;-77
2023/01/03 12:33:18;;;;;;;136.10;64.22;;;;;;;;;;4991947;28;20510;-79
2023/01/03 12:35:59;;;;;;;100.43;45.22;;;;;;;;;;4991506;28;20126;-78
2023/01/03 12:38:29;;;;;;;101.32;46.95;;;;;;;;;;4971996;28;20030;-78
2023/01/03 12:41:30;;;;;;;101.68;48.45;;;;;;;;;;4972234;28;20125;-78
2023/01/03 12:44:26;;;;;;;116.82;50.70;;;;;;;;;;4955973;28;20068;-79
2023/01/03 12:46:55;;;;;;;124.13;54.65;;;;;;;;;;4974420;28;20097;-78
2023/01/03 12:50:02;;;;;;;133.80;58.58;;;;;;;;;;4981865;28;20041;-76
2023/01/03 12:52:31;;;;;;;113.15;49.80;;;;;;;;;;4921074;29;20035;-77
2023/01/03 12:55:02;;;;;;;101.13;46.75;;;;;;;;;;4921586;29;20057;-77
2023/01/03 12:57:36;;;;;;;94.88;44.28;;;;;;;;;;4963444;28;20494;-78
2023/01/03 13:00:10;;;;;;;118.93;48.92;;;;;;;;;;4980432;28;20042;-77
2023/01/03 13:03:12;;;;;;;104.45;50.72;;;;;;;;;;4991530;28;20049;-77
2023/01/03 13:05:50;;;;;;;105.28;48.15;;;;;;;;;;4944393;28;20133;-78
2023/01/03 13:08:28;;;;;;;104.95;50.20;;;;;;;;;;4974220;28;20070;-78
2023/01/03 13:10:59;;;;;;;112.70;49.20;;;;;;;;;;4991508;28;20074;-75
2023/01/03 13:13:27;;;;;;;119.43;53.42;;;;;;;;;;4973140;28;20034;-81
2023/01/03 13:15:54;;;;;;;142.80;59.53;;;;;;;;;;4958807;28;20022;-84
2023/01/03 13:18:23;;;;;;;144.52;60.95;;;;;;;;;;4989488;28;20575;-82
2023/01/03 13:20:53;;;;;;;141.10;59.50;;;;;;;;;;4974898;28;20042;-83
2023/01/03 13:23:55;;;;;;;151.40;66.38;;;;;;;;;;4993659;28;20037;-78
2023/01/03 13:26:27;;;;;;;162.18;68.68;;;;;;;;;;4996536;28;20034;-78
2023/01/03 13:29:31;;;;;;;163.43;67.88;;;;;;;;;;4980704;28;20408;-78
2023/01/03 13:32:15;;;;;;;159.07;63.80;;;;;;;;;;5000574;28;20408;-76
2023/01/03 13:34:41;;;;;;;140.23;61.97;;;;;;;;;;5001753;28;20034;-78
2023/01/03 13:37:16;;;;;;;137.40;62.67;;;;;;;;;;4985472;28;20399;-77
2023/01/03 13:39:57;;;;;;;161.68;69.65;;;;;;;;;;5000561;28;20073;-78
2023/01/03 13:42:29;;;;;;;157.93;70.15;;;;;;;;;;5001067;28;20741;-78
2023/01/03 13:45:16;;;;;;;163.67;70.03;;;;;;;;;;4998876;28;20551;-78
2023/01/03 13:47:47;;;;;;;166.32;73.80;;;;;;;;;;4997596;28;20069;-79
2023/01/03 13:50:28;;;;;;;157.90;73.05;;;;;;;;;;4986922;28;20030;-78
2023/01/03 13:53:00;;;;;;;230.25;90.50;;;;;;;;;;5000188;28;20085;-79
2023/01/03 13:55:35;;;;;;;224.30;86.75;;;;;;;;;;5002838;28;20022;-78
2023/01/03 13:58:22;;;;;;;197.38;85.15;;;;;;;;;;5003470;28;20126;-79
2023/01/03 14:00:51;;;;;;;230.43;96.38;;;;;;;;;;4982792;28;20042;-78
2023/01/03 14:03:22;;;;;;;252.70;101.78;;;;;;;;;;4980855;28;20125;-77
2023/01/03 14:06:10;;;;;;;233.00;94.28;;;;;;;;;;5002174;28;20460;-79
2023/01/03 14:08:59;;;;;;;219.73;87.75;;;;;;;;;;5001326;28;20041;-79
2023/01/03 14:11:26;;;;;;;244.90;99.90;;;;;;;;;;4997926;28;20057;-76
2023/01/03 14:14:04;;;;;;;252.20;107.25;;;;;;;;;;4999026;28;20026;-77
2023/01/03 14:16:51;;;;;;;285.63;120.80;;;;;;;;;;4984353;28;20042;-78
2023/01/03 14:19:27;;;;;;;252.68;112.28;;;;;;;;;;4999815;28;20042;-78
2023/01/03 14:21:53;;;;;;;281.15;138.77;;;;;;;;;;4962936;28;20035;-77
2023/01/03 14:24:26;;;;;;;299.75;128.50;;;;;;;;;;5000279;28;20026;-79
2023/01/03 14:27:02;;;;;;;311.10;135.48;;;;;;;;;;5005361;28;20458;-77
2023/01/03 14:29:28;;;;;;;274.02;118.97;;;;;;;;;;4995922;28;20487;-77
2023/01/03 14:31:55;;;;;;;243.98;106.72;;;;;;;;;;4999467;28;20018;-79
2023/01/03 14:34:28;;;;;;;231.63;98.65;;;;;;;;;;4982379;28;20033;-78
2023/01/03 14:37:00;;;;;;;249.45;104.65;;;;;;;;;;5002787;28;20038;-79
2023/01/03 14:39:31;;;;;;;249.77;100.03;;;;;;;;;;4996810;28;20034;-78
2023/01/03 14:42:03;;;;;;;228.27;96.15;;;;;;;;;;5004570;28;20492;-77
2023/01/03 14:44:29;;;;;;;292.80;123.93;;;;;;;;;;4995007;28;20064;-81
2023/01/03 14:46:58;;;;;;;302.45;136.43;;;;;;;;;;4994499;28;20026;-79
2023/01/03 14:49:45;;;;;;;353.15;157.80;;;;;;;;;;4994355;28;20034;-80
2023/01/03 14:52:18;;;;;;;343.33;144.32;;;;;;;;;;4960931;28;20037;-78
2023/01/03 14:54:50;;;;;;;307.48;80.63;;;;;;;;;;4994694;28;20031;-78
2023/01/03 14:57:24;;;;;;;271.70;97.03;;;;;;;;;;4957323;28;20035;-79
2023/01/03 14:59:52;;;;;;;321.75;131.98;;;;;;;;;;4974192;28;20424;-79
2023/01/03 15:02:18;;;;;;;431.58;228.50;;;;;;;;;;4977073;28;20032;-78
2023/01/03 15:04:52;;;;;;;441.92;234.27;;;;;;;;;;4976623;28;20035;-78
2023/01/03 15:07:43;;;;;;;553.13;310.98;;;;;;;;;;4997819;28;20022;-79
2023/01/03 15:10:24;;;;;;;506.88;302.38;;;;;;;;;;4981529;28;20496;-85
2023/01/03 15:12:53;;;;;;;737.15;340.98;;;;;;;;;;4966794;28;20174;-77
2023/01/03 15:15:23;;;;;;;628.17;327.48;;;;;;;;;;4954638;28;20181;-77
2023/01/03 15:17:53;;;;;;;549.53;258.73;;;;;;;;;;4954982;28;20032;-78
2023/01/03 15:20:26;;;;;;;586.20;248.82;;;;;;;;;;4937371;29;20043;-78
2023/01/03 15:22:59;;;;;;;376.52;137.13;;;;;;;;;;4953324;29;20046;-78
2023/01/03 15:25:32;;;;;;;461.10;138.88;;;;;;;;;;4955971;28;20492;-78
2023/01/03 15:28:14;;;;;;;346.05;130.73;;;;;;;;;;4953651;29;20039;-81
2023/01/03 15:30:47;;;;;;;276.73;117.65;;;;;;;;;;4937558;29;20157;-78
2023/01/03 15:33:43;;;;;;;389.87;135.40;;;;;;;;;;4953155;28;20039;-79
2023/01/03 15:36:14;;;;;;;383.65;162.98;;;;;;;;;;4946440;28;20055;-79
2023/01/03 15:38:45;;;;;;;357.52;148.65;;;;;;;;;;4953071;29;20063;-79
2023/01/03 15:44:26;;;;;;;154.93;70.85;;;;;;;;;;4954962;29;20069;-84
2023/01/03 15:47:01;;;;;;;158.95;62.28;;;;;;;;;;4955666;29;20118;-84
2023/01/03 15:49:29;;;;;;;111.65;47.90;;;;;;;;;;4952652;28;20047;-78